Time;durP1;ratioP1;P1;durP2;ratioP2;P2;SDS_P1;SDS_P2;PMS_P1;PMS_P2;Temp;Humidity;BMP_temperature;BMP_pressure;BME280_temperature;BME280_humidity;BME280_pressure;Samples;Min_cycle;Max_cycle;Signal;HPM_P1;HPM_P2
2022/02/16 00:02:11;;;;;;;;;;;6.60;99.90;;;;;;5000313;28;19943;-72
2022/02/16 00:04:37;;;;;;;;;;;6.50;99.90;;;;;;4970148;28;19924;-72
2022/02/16 00:07:03;;;;;;;;;;;6.50;99.90;;;;;;4998293;28;19992;-72
2022/02/16 00:09:29;;;;;;;;;;;6.50;99.90;;;;;;5002869;28;20004;-72
2022/02/16 00:11:54;;;;;;;;;;;6.60;99.90;;;;;;5000207;28;20371;-71
2022/02/16 00:14:20;;;;;;;;;;;6.50;99.90;;;;;;4998877;28;19921;-72
2022/02/16 00:16:45;;;;;;;;;;;6.50;99.90;;;;;;5000799;28;19922;-74
2022/02/16 00:19:11;;;;;;;;;;;6.50;99.90;;;;;;4998541;28;20314;-72
2022/02/16 00:21:36;;;;;;;;;;;6.50;99.90;;;;;;4982648;28;19977;-70
2022/02/16 00:24:02;;;;;;;;;;;6.60;99.90;;;;;;5002160;28;19959;-73
2022/02/16 00:26:28;;;;;;;;;;;6.50;99.90;;;;;;5001867;28;19945;-70
2022/02/16 00:28:53;;;;;;;;;;;6.60;99.90;;;;;;5002336;28;20037;-73
2022/02/16 00:31:19;;;;;;;;;;;6.60;99.90;;;;;;5003312;28;19920;-73
2022/02/16 00:33:45;;;;;;;;;;;6.70;99.90;;;;;;4986212;28;19921;-73
2022/02/16 00:36:10;;;;;;;;;;;6.60;99.90;;;;;;4987333;28;19917;-73
2022/02/16 00:38:36;;;;;;;;;;;6.70;99.90;;;;;;5002798;28;20308;-72
2022/02/16 00:41:01;;;;;;;;;;;6.60;99.90;;;;;;5000909;28;19920;-73
2022/02/16 00:43:27;;;;;;;;;;;6.60;99.90;;;;;;4986425;28;20047;-72
2022/02/16 00:45:52;;;;;;;;;;;6.60;99.90;;;;;;5002564;28;19924;-72
2022/02/16 00:48:18;;;;;;;;;;;6.60;99.90;;;;;;5002176;28;19909;-72
2022/02/16 00:50:44;;;;;;;;;;;6.60;99.90;;;;;;5001341;28;19932;-72
2022/02/16 00:53:09;;;;;;;;;;;6.60;99.90;;;;;;4981349;28;19925;-72
2022/02/16 00:55:35;;;;;;;;;;;6.60;99.90;;;;;;4998056;28;20099;-73
2022/02/16 00:58:02;;;;;;;;;;;6.60;99.90;;;;;;5000853;28;20280;-72
2022/02/16 01:00:28;;;;;;;;;;;6.60;99.90;;;;;;4980247;28;19956;-72
2022/02/16 01:02:53;;;;;;;;;;;6.60;99.90;;;;;;4997979;28;20406;-73
2022/02/16 01:05:19;;;;;;;;;;;6.60;99.90;;;;;;5002412;28;19917;-73
2022/02/16 01:07:44;;;;;;;;;;;6.50;99.90;;;;;;4984677;28;20004;-73
2022/02/16 01:10:10;;;;;;;;;;;6.50;99.90;;;;;;4998250;28;20000;-73
2022/02/16 01:12:35;;;;;;;;;;;6.50;99.90;;;;;;5003691;28;19921;-72
2022/02/16 01:15:02;;;;;;;;;;;6.50;99.90;;;;;;4984751;28;19921;-72
2022/02/16 01:17:27;;;;;;;;;;;6.60;99.90;;;;;;5000309;28;19919;-73
2022/02/16 01:19:53;;;;;;;;;;;6.60;99.90;;;;;;4980984;28;19909;-73
2022/02/16 01:22:19;;;;;;;;;;;6.60;99.90;;;;;;4981711;28;20390;-72
2022/02/16 01:24:45;;;;;;;;;;;6.50;99.90;;;;;;5001124;28;19910;-73
2022/02/16 01:27:10;;;;;;;;;;;6.60;99.90;;;;;;5003751;28;19910;-73
2022/02/16 01:29:36;;;;;;;;;;;6.50;99.90;;;;;;5004384;28;19917;-73
2022/02/16 01:32:02;;;;;;;;;;;6.60;99.90;;;;;;4963776;28;19921;-73
2022/02/16 01:34:28;;;;;;;;;;;6.60;99.90;;;;;;5002554;28;20004;-73
2022/02/16 01:36:54;;;;;;;;;;;6.50;99.90;;;;;;4998376;28;19994;-72
2022/02/16 01:39:19;;;;;;;;;;;6.60;99.90;;;;;;4999929;28;20360;-73
2022/02/16 01:41:45;;;;;;;;;;;6.60;99.90;;;;;;4998225;28;20318;-73
2022/02/16 01:44:10;;;;;;;;;;;6.60;99.90;;;;;;4997507;28;19914;-73
2022/02/16 01:46:53;;;;;;;;;;;6.60;99.90;;;;;;4983589;28;19991;-72
2022/02/16 01:49:18;;;;;;;;;;;6.60;99.90;;;;;;4998852;28;19910;-73
2022/02/16 01:51:44;;;;;;;;;;;6.60;99.90;;;;;;5001574;28;19910;-73
2022/02/16 01:54:11;;;;;;;;;;;6.60;99.90;;;;;;4981257;28;19914;-72
2022/02/16 01:56:36;;;;;;;;;;;6.60;99.90;;;;;;4981938;28;19971;-72
2022/02/16 01:59:02;;;;;;;;;;;6.60;99.90;;;;;;5002247;28;19909;-73
2022/02/16 02:01:28;;;;;;;;;;;6.60;99.90;;;;;;4998557;28;20387;-73
2022/02/16 02:03:53;;;;;;;;;;;6.60;99.90;;;;;;4998768;28;19917;-72
2022/02/16 02:06:19;;;;;;;;;;;6.60;99.90;;;;;;4999012;28;19980;-72
2022/02/16 02:08:45;;;;;;;;;;;6.70;99.90;;;;;;4999950;28;19913;-72
2022/02/16 02:11:10;;;;;;;;;;;6.70;99.90;;;;;;4996286;28;19923;-73
2022/02/16 02:13:36;;;;;;;;;;;6.70;99.90;;;;;;4999097;28;20250;-72
2022/02/16 02:16:01;;;;;;;;;;;6.70;99.90;;;;;;5000630;28;19921;-73
2022/02/16 02:18:27;;;;;;;;;;;6.70;99.90;;;;;;4996224;28;20245;-73
2022/02/16 02:20:52;;;;;;;;;;;6.70;99.90;;;;;;4998615;28;19957;-74
2022/02/16 02:23:18;;;;;;;;;;;6.80;99.90;;;;;;4996883;28;19956;-73
2022/02/16 02:25:43;;;;;;;;;;;6.80;99.90;;;;;;4981252;28;19960;-73
2022/02/16 02:28:10;;;;;;;;;;;6.80;99.90;;;;;;4983530;28;19909;-73
2022/02/16 02:30:36;;;;;;;;;;;6.80;99.90;;;;;;4983484;28;19944;-73
2022/02/16 02:33:01;;;;;;;;;;;6.70;99.90;;;;;;4998763;28;19910;-73
2022/02/16 02:35:27;;;;;;;;;;;6.80;99.90;;;;;;4998718;28;19914;-73
2022/02/16 02:37:53;;;;;;;;;;;6.80;99.90;;;;;;4983184;28;19921;-72
2022/02/16 02:40:18;;;;;;;;;;;6.80;99.90;;;;;;4980112;28;19996;-73
2022/02/16 02:42:44;;;;;;;;;;;6.90;99.90;;;;;;5001792;28;19916;-73
2022/02/16 02:45:10;;;;;;;;;;;6.90;99.90;;;;;;4998640;28;20339;-72
2022/02/16 02:47:36;;;;;;;;;;;6.90;99.90;;;;;;4966153;28;19914;-73
2022/02/16 02:50:02;;;;;;;;;;;6.90;99.90;;;;;;4980529;28;19919;-73
2022/02/16 02:52:28;;;;;;;;;;;6.80;99.90;;;;;;4987822;28;19957;-73
2022/02/16 02:54:53;;;;;;;;;;;6.80;99.90;;;;;;5001220;28;19959;-73
2022/02/16 02:57:19;;;;;;;;;;;6.90;99.90;;;;;;4982950;28;19921;-73
2022/02/16 02:59:44;;;;;;;;;;;6.90;99.90;;;;;;5001866;28;20330;-73
2022/02/16 03:02:10;;;;;;;;;;;6.80;99.90;;;;;;4998165;28;19957;-73
2022/02/16 03:04:35;;;;;;;;;;;6.90;99.90;;;;;;4979945;28;19918;-73
2022/02/16 03:07:01;;;;;;;;;;;6.80;99.90;;;;;;4997876;28;20275;-73
2022/02/16 03:09:27;;;;;;;;;;;6.90;99.90;;;;;;5003756;28;20383;-73
2022/02/16 03:11:52;;;;;;;;;;;6.90;99.90;;;;;;4999372;28;20386;-73
2022/02/16 03:14:18;;;;;;;;;;;6.90;99.90;;;;;;4983388;28;19957;-73
2022/02/16 03:16:43;;;;;;;;;;;6.90;99.90;;;;;;4986375;28;19959;-73
2022/02/16 03:19:09;;;;;;;;;;;6.90;99.90;;;;;;4996171;28;19917;-73
2022/02/16 03:21:34;;;;;;;;;;;7.00;99.90;;;;;;4980155;28;19953;-73
2022/02/16 03:24:00;;;;;;;;;;;7.00;99.90;;;;;;4980576;28;19918;-73
2022/02/16 03:26:25;;;;;;;;;;;7.00;99.90;;;;;;5003924;28;20352;-73
2022/02/16 03:28:51;;;;;;;;;;;7.00;99.90;;;;;;5002481;28;19913;-73
2022/02/16 03:31:17;;;;;;;;;;;7.00;99.90;;;;;;4981680;28;19961;-73
2022/02/16 03:33:42;;;;;;;;;;;7.00;99.90;;;;;;4966374;28;19964;-73
2022/02/16 03:36:08;;;;;;;;;;;7.00;99.90;;;;;;4978445;28;19910;-73
2022/02/16 03:38:33;;;;;;;;;;;7.10;99.90;;;;;;5000243;28;19920;-73
2022/02/16 03:40:59;;;;;;;;;;;7.00;99.90;;;;;;4998768;28;19960;-73
2022/02/16 03:43:24;;;;;;;;;;;7.10;99.90;;;;;;4997560;28;19913;-73
2022/02/16 03:45:50;;;;;;;;;;;7.10;99.90;;;;;;4997556;28;19914;-73
2022/02/16 03:48:16;;;;;;;;;;;7.10;99.90;;;;;;5007023;28;19985;-73
2022/02/16 03:50:41;;;;;;;;;;;7.10;99.90;;;;;;4987054;28;19910;-74
2022/02/16 03:53:07;;;;;;;;;;;7.10;99.90;;;;;;5004427;28;19910;-73
2022/02/16 03:55:32;;;;;;;;;;;7.10;99.90;;;;;;4982977;28;20009;-74
2022/02/16 03:57:58;;;;;;;;;;;7.20;99.90;;;;;;4984424;28;20334;-73
2022/02/16 04:00:23;;;;;;;;;;;7.20;99.90;;;;;;5002225;28;20367;-72
2022/02/16 04:02:49;;;;;;;;;;;7.20;99.90;;;;;;5002158;28;19973;-73
2022/02/16 04:05:15;;;;;;;;;;;7.20;99.90;;;;;;5001969;28;19914;-74
2022/02/16 04:07:40;;;;;;;;;;;7.20;99.90;;;;;;4985185;28;19963;-73
2022/02/16 04:10:07;;;;;;;;;;;7.20;99.90;;;;;;5000593;28;19918;-73
2022/02/16 04:12:33;;;;;;;;;;;7.20;99.90;;;;;;5002712;28;19960;-73
2022/02/16 04:14:58;;;;;;;;;;;7.20;99.90;;;;;;4987168;28;19937;-73
2022/02/16 04:17:24;;;;;;;;;;;7.20;99.90;;;;;;5002140;28;19914;-72
2022/02/16 04:19:49;;;;;;;;;;;7.20;99.90;;;;;;5004427;28;20387;-74
2022/02/16 04:22:16;;;;;;;;;;;7.20;99.90;;;;;;4986199;28;20458;-73
2022/02/16 04:24:43;;;;;;;;;;;7.20;99.90;;;;;;4985054;28;20012;-73
2022/02/16 04:27:08;;;;;;;;;;;7.30;99.90;;;;;;4985738;28;20252;-73
2022/02/16 04:29:34;;;;;;;;;;;7.30;99.90;;;;;;4982855;28;19910;-73
2022/02/16 04:32:00;;;;;;;;;;;7.30;99.90;;;;;;4979831;28;19914;-72
2022/02/16 04:34:25;;;;;;;;;;;7.30;99.90;;;;;;5000707;28;20231;-72
2022/02/16 04:36:51;;;;;;;;;;;7.40;99.90;;;;;;5004045;28;19917;-72
2022/02/16 04:39:16;;;;;;;;;;;7.40;99.90;;;;;;5003048;28;20052;-71
2022/02/16 04:41:42;;;;;;;;;;;7.50;99.90;;;;;;5001212;28;19909;-72
2022/02/16 04:44:08;;;;;;;;;;;7.50;99.90;;;;;;4986274;28;19991;-72
2022/02/16 04:46:34;;;;;;;;;;;7.50;99.90;;;;;;5002299;28;20498;-72
2022/02/16 04:48:59;;;;;;;;;;;7.40;99.90;;;;;;5001045;28;20323;-72
2022/02/16 04:51:25;;;;;;;;;;;7.40;99.90;;;;;;5000181;28;19910;-72
2022/02/16 04:53:50;;;;;;;;;;;7.40;99.90;;;;;;4985711;28;19918;-72
2022/02/16 04:56:18;;;;;;;;;;;7.30;99.90;;;;;;4999015;28;19909;-72
2022/02/16 04:58:43;;;;;;;;;;;7.30;99.90;;;;;;4998874;28;19917;-72
2022/02/16 05:01:09;;;;;;;;;;;7.30;99.90;;;;;;4976267;28;19917;-72
2022/02/16 05:03:34;;;;;;;;;;;7.30;99.90;;;;;;5001648;28;20000;-72
2022/02/16 05:06:00;;;;;;;;;;;7.30;99.90;;;;;;4981936;28;20264;-72
2022/02/16 05:08:25;;;;;;;;;;;7.30;99.90;;;;;;4982693;28;20462;-72
2022/02/16 05:10:51;;;;;;;;;;;7.30;99.90;;;;;;5000911;28;19924;-72
2022/02/16 05:13:16;;;;;;;;;;;7.30;99.90;;;;;;4966271;28;19929;-73
2022/02/16 05:15:42;;;;;;;;;;;7.30;99.90;;;;;;5000051;28;19909;-73
2022/02/16 05:18:08;;;;;;;;;;;7.30;99.90;;;;;;5001600;28;19920;-73
2022/02/16 05:20:33;;;;;;;;;;;7.30;99.90;;;;;;4999523;28;20418;-73
2022/02/16 05:23:01;;;;;;;;;;;7.30;99.90;;;;;;4982862;28;20252;-72
2022/02/16 05:25:26;;;;;;;;;;;7.40;99.90;;;;;;5002661;28;19913;-72
2022/02/16 05:27:52;;;;;;;;;;;7.40;99.90;;;;;;4986261;28;19963;-72
2022/02/16 05:30:17;;;;;;;;;;;7.40;99.90;;;;;;5002939;28;19917;-73
2022/02/16 05:32:43;;;;;;;;;;;7.50;99.90;;;;;;4994799;28;19914;-73
2022/02/16 05:35:10;;;;;;;;;;;7.40;99.90;;;;;;4995488;28;20454;-73
2022/02/16 05:37:36;;;;;;;;;;;7.50;99.90;;;;;;4997854;28;19921;-72
2022/02/16 05:40:02;;;;;;;;;;;7.40;99.90;;;;;;4997820;28;19972;-73
2022/02/16 05:42:27;;;;;;;;;;;7.50;99.90;;;;;;5000945;28;19916;-75
2022/02/16 05:44:53;;;;;;;;;;;7.50;99.90;;;;;;5000690;28;21553;-74
2022/02/16 05:47:19;;;;;;;;;;;7.40;99.90;;;;;;4985750;28;19909;-73
2022/02/16 05:49:44;;;;;;;;;;;7.40;99.90;;;;;;5008283;28;19918;-73
2022/02/16 05:52:10;;;;;;;;;;;7.30;99.90;;;;;;5005131;28;19909;-72
2022/02/16 05:54:35;;;;;;;;;;;7.40;99.90;;;;;;5004077;28;19971;-72
2022/02/16 05:57:01;;;;;;;;;;;7.40;99.90;;;;;;5002677;28;19913;-74
2022/02/16 05:59:26;;;;;;;;;;;7.40;99.90;;;;;;4970432;28;19910;-74
2022/02/16 06:01:52;;;;;;;;;;;7.40;99.90;;;;;;5000001;28;19996;-73
2022/02/16 06:04:18;;;;;;;;;;;7.40;99.90;;;;;;5004487;28;19909;-72
2022/02/16 06:06:43;;;;;;;;;;;7.40;99.90;;;;;;4987611;28;19909;-72
2022/02/16 06:09:09;;;;;;;;;;;7.30;99.90;;;;;;5003472;28;19918;-73
2022/02/16 06:11:35;;;;;;;;;;;7.30;99.90;;;;;;5004936;28;19916;-73
2022/02/16 06:14:01;;;;;;;;;;;7.30;99.90;;;;;;5003008;28;19979;-73
2022/02/16 06:16:26;;;;;;;;;;;7.30;99.90;;;;;;5001150;28;19964;-73
2022/02/16 06:18:52;;;;;;;;;;;7.30;99.90;;;;;;4997481;28;19976;-72
2022/02/16 06:21:17;;;;;;;;;;;7.20;99.90;;;;;;4984001;28;19920;-73
2022/02/16 06:23:43;;;;;;;;;;;7.20;99.90;;;;;;5000544;28;19953;-73
2022/02/16 06:26:09;;;;;;;;;;;7.20;99.90;;;;;;4993858;28;19913;-73
2022/02/16 06:28:34;;;;;;;;;;;7.20;99.90;;;;;;4999932;28;19910;-74
2022/02/16 06:31:03;;;;;;;;;;;7.20;99.90;;;;;;5006541;28;19916;-74
2022/02/16 06:33:30;;;;;;;;;;;7.30;99.90;;;;;;4998846;28;20464;-74
2022/02/16 06:35:56;;;;;;;;;;;7.30;99.90;;;;;;5002334;28;19909;-74
2022/02/16 06:38:21;;;;;;;;;;;7.30;99.90;;;;;;4999040;28;20430;-74
2022/02/16 06:40:48;;;;;;;;;;;7.30;99.90;;;;;;5002732;28;19909;-73
2022/02/16 06:43:14;;;;;;;;;;;7.30;99.90;;;;;;5004345;28;19988;-73
2022/02/16 06:45:40;;;;;;;;;;;7.30;99.90;;;;;;5000406;28;19910;-74
2022/02/16 06:48:05;;;;;;;;;;;7.30;99.90;;;;;;5002132;28;20356;-74
2022/02/16 06:50:31;;;;;;;;;;;7.30;99.90;;;;;;5001133;28;19910;-74
2022/02/16 06:52:56;;;;;;;;;;;7.30;99.90;;;;;;4987080;28;20334;-75
2022/02/16 06:55:22;;;;;;;;;;;7.30;99.90;;;;;;5001749;28;19909;-74
2022/02/16 06:57:47;;;;;;;;;;;7.30;99.90;;;;;;5004038;28;20397;-74
2022/02/16 07:00:13;;;;;;;;;;;7.30;99.90;;;;;;4984645;28;19913;-73
2022/02/16 07:02:43;;;;;;;;;;;7.30;99.90;;;;;;4997721;28;19956;-73
2022/02/16 07:05:08;;;;;;;;;;;7.30;99.90;;;;;;4999566;28;19917;-73
2022/02/16 07:07:34;;;;;;;;;;;7.30;99.90;;;;;;4982468;28;19913;-73
2022/02/16 07:09:59;;;;;;;;;;;7.30;99.90;;;;;;5007739;28;19961;-73
2022/02/16 07:12:25;;;;;;;;;;;7.20;99.90;;;;;;5002750;28;19909;-74
2022/02/16 07:14:56;;;;;;;;;;;7.20;99.90;;;;;;4979982;28;19914;-74
2022/02/16 07:17:24;;;;;;;;;;;7.30;99.90;;;;;;4998218;28;20314;-74
2022/02/16 07:19:50;;;;;;;;;;;7.30;99.90;;;;;;4980922;28;19916;-74
2022/02/16 07:22:16;;;;;;;;;;;7.20;99.90;;;;;;5000483;28;19910;-72
2022/02/16 07:24:41;;;;;;;;;;;7.30;99.90;;;;;;4983918;28;19910;-74
2022/02/16 07:27:07;;;;;;;;;;;7.40;99.90;;;;;;4999442;28;20330;-72
2022/02/16 07:29:32;;;;;;;;;;;7.30;99.90;;;;;;5002132;28;20131;-74
2022/02/16 07:31:58;;;;;;;;;;;7.30;99.90;;;;;;5004351;28;20351;-74
2022/02/16 07:34:26;;;;;;;;;;;7.40;99.90;;;;;;5001386;28;20346;-73
2022/02/16 07:36:52;;;;;;;;;;;7.40;99.90;;;;;;5007916;28;19940;-74
2022/02/16 07:39:18;;;;;;;;;;;7.40;99.90;;;;;;4999625;28;20016;-74
2022/02/16 07:41:44;;;;;;;;;;;7.40;99.90;;;;;;5002936;28;20419;-74
2022/02/16 07:44:09;;;;;;;;;;;7.50;99.90;;;;;;5004309;28;20375;-74
2022/02/16 07:46:35;;;;;;;;;;;7.40;99.90;;;;;;5004087;28;20252;-74
2022/02/16 07:49:01;;;;;;;;;;;7.40;99.90;;;;;;4999265;28;19917;-74
2022/02/16 07:51:26;;;;;;;;;;;7.50;99.90;;;;;;5001427;28;20014;-74
2022/02/16 07:53:52;;;;;;;;;;;7.50;99.90;;;;;;5000356;28;19909;-73
2022/02/16 07:56:17;;;;;;;;;;;7.50;99.90;;;;;;5001195;28;20488;-74
2022/02/16 07:58:43;;;;;;;;;;;7.60;99.90;;;;;;4984155;28;19917;-74
2022/02/16 08:01:09;;;;;;;;;;;7.60;99.90;;;;;;5000329;28;19913;-74
2022/02/16 08:03:34;;;;;;;;;;;7.50;99.90;;;;;;4982609;28;19914;-74
2022/02/16 08:06:03;;;;;;;;;;;7.50;99.90;;;;;;4987243;28;19913;-74
2022/02/16 08:08:30;;;;;;;;;;;7.50;99.90;;;;;;5002234;28;19916;-74
2022/02/16 08:10:56;;;;;;;;;;;7.50;99.90;;;;;;5005011;28;19917;-74
2022/02/16 08:13:21;;;;;;;;;;;7.50;99.90;;;;;;5005514;28;19963;-74
2022/02/16 08:15:47;;;;;;;;;;;7.60;99.90;;;;;;5005987;28;19920;-74
2022/02/16 08:18:13;;;;;;;;;;;7.60;99.90;;;;;;4982066;28;19924;-73
2022/02/16 08:20:41;;;;;;;;;;;7.70;99.90;;;;;;5000620;28;20351;-74
2022/02/16 08:23:07;;;;;;;;;;;7.70;99.90;;;;;;5000617;28;19909;-74
2022/02/16 08:25:34;;;;;;;;;;;7.70;99.90;;;;;;5002269;28;19916;-74
2022/02/16 08:27:59;;;;;;;;;;;7.70;99.90;;;;;;5000696;28;19910;-74
2022/02/16 08:30:25;;;;;;;;;;;7.70;99.90;;;;;;4999517;28;19964;-74
2022/02/16 08:32:52;;;;;;;;;;;7.70;99.90;;;;;;5000873;28;20361;-74
2022/02/16 08:35:18;;;;;;;;;;;7.60;99.90;;;;;;4983263;28;19909;-74
2022/02/16 08:37:44;;;;;;;;;;;7.70;99.90;;;;;;4999712;28;19913;-74
2022/02/16 08:40:10;;;;;;;;;;;7.70;99.90;;;;;;5000343;28;19916;-74
2022/02/16 08:42:36;;;;;;;;;;;7.80;99.90;;;;;;5000023;28;20293;-74
2022/02/16 08:45:02;;;;;;;;;;;7.70;99.90;;;;;;4964356;28;19910;-74
2022/02/16 08:47:27;;;;;;;;;;;7.70;99.90;;;;;;4980043;28;19952;-74
2022/02/16 08:49:53;;;;;;;;;;;7.70;99.90;;;;;;5000681;28;19977;-74
2022/02/16 08:52:18;;;;;;;;;;;7.70;99.90;;;;;;5000488;28;19917;-74
2022/02/16 08:54:44;;;;;;;;;;;7.70;99.90;;;;;;5000182;28;20000;-74
2022/02/16 08:57:09;;;;;;;;;;;7.80;99.90;;;;;;5002160;28;19918;-74
2022/02/16 08:59:35;;;;;;;;;;;7.80;99.90;;;;;;5001325;28;20004;-74
2022/02/16 09:02:01;;;;;;;;;;;7.90;99.90;;;;;;4984515;28;20368;-74
2022/02/16 09:04:27;;;;;;;;;;;7.80;99.90;;;;;;4999907;28;19910;-74
2022/02/16 09:09:37;;;;;;;;;;;7.80;99.90;;;;;;4999223;28;20306;-74
2022/02/16 09:12:06;;;;;;;;;;;7.90;99.90;;;;;;5001577;28;19910;-74
2022/02/16 09:14:31;;;;;;;;;;;7.90;99.90;;;;;;4998814;28;20008;-74
2022/02/16 09:16:57;;;;;;;;;;;7.90;99.90;;;;;;5000667;28;20008;-73
2022/02/16 09:19:23;;;;;;;;;;;8.00;99.90;;;;;;4981489;28;19973;-74
2022/02/16 09:21:48;;;;;;;;;;;7.90;99.90;;;;;;4998791;28;19909;-74
2022/02/16 09:24:14;;;;;;;;;;;7.90;99.90;;;;;;4998497;28;19952;-74
2022/02/16 09:26:40;;;;;;;;;;;8.00;99.90;;;;;;5001282;28;20371;-74
2022/02/16 09:29:05;;;;;;;;;;;8.10;99.90;;;;;;4999472;28;19909;-73
2022/02/16 09:31:31;;;;;;;;;;;8.00;99.90;;;;;;5002109;28;19913;-74
2022/02/16 09:33:56;;;;;;;;;;;8.00;99.90;;;;;;5001440;28;20283;-74
2022/02/16 09:36:22;;;;;;;;;;;8.00;99.90;;;;;;4981092;28;19917;-73
2022/02/16 09:38:48;;;;;;;;;;;8.00;99.90;;;;;;4983016;28;20020;-74
2022/02/16 09:41:15;;;;;;;;;;;8.10;99.90;;;;;;4982790;28;19989;-74
2022/02/16 09:43:40;;;;;;;;;;;8.10;99.90;;;;;;4998323;28;19975;-75
2022/02/16 09:46:06;;;;;;;;;;;8.10;99.90;;;;;;4999252;28;20009;-74
2022/02/16 09:48:33;;;;;;;;;;;8.00;99.90;;;;;;5000697;28;20274;-74
2022/02/16 09:50:59;;;;;;;;;;;8.00;99.90;;;;;;5002379;28;20339;-74
2022/02/16 09:53:24;;;;;;;;;;;8.00;99.90;;;;;;4983365;28;19956;-73
2022/02/16 09:55:50;;;;;;;;;;;8.00;99.90;;;;;;4999659;28;20238;-73
2022/02/16 09:58:16;;;;;;;;;;;8.00;99.90;;;;;;4999867;28;19963;-74
2022/02/16 10:01:00;;;;;;;;;;;8.00;99.90;;;;;;5001346;28;19945;-73
2022/02/16 10:03:26;;;;;;;;;;;8.00;99.90;;;;;;4981012;28;19995;-73
2022/02/16 10:05:51;;;;;;;;;;;8.10;99.90;;;;;;4999014;28;19910;-73
2022/02/16 10:08:37;;;;;;;;;;;8.10;99.90;;;;;;4998825;28;19910;-73
2022/02/16 10:11:02;;;;;;;;;;;8.10;99.90;;;;;;4999695;28;20378;-73
2022/02/16 10:13:28;;;;;;;;;;;8.10;99.90;;;;;;4977925;28;19913;-74
2022/02/16 10:15:53;;;;;;;;;;;8.20;99.90;;;;;;4998186;28;19941;-73
2022/02/16 10:18:21;;;;;;;;;;;8.30;99.90;;;;;;4998614;28;19965;-73
2022/02/16 10:20:47;;;;;;;;;;;8.30;99.90;;;;;;4981185;28;19945;-73
2022/02/16 10:23:15;;;;;;;;;;;8.30;99.90;;;;;;4999224;28;20379;-73
2022/02/16 10:25:47;;;;;;;;;;;8.30;99.90;;;;;;4985324;28;19945;-73
2022/02/16 10:28:14;;;;;;;;;;;8.40;99.90;;;;;;5000784;28;19928;-73
2022/02/16 10:30:56;;;;;;;;;;;8.40;99.90;;;;;;4980350;28;20411;-73
2022/02/16 10:33:32;;;;;;;;;;;8.40;99.90;;;;;;4997238;28;19913;-74
2022/02/16 10:35:57;;;;;;;;;;;8.40;99.90;;;;;;4981462;28;20030;-72
2022/02/16 10:38:23;;;;;;;;;;;8.50;99.90;;;;;;4980976;28;20271;-73
2022/02/16 10:40:59;;;;;;;;;;;8.50;99.90;;;;;;4996446;28;20342;-73
2022/02/16 10:43:31;;;;;;;;;;;8.40;99.90;;;;;;5000158;28;20308;-73
2022/02/16 10:45:57;;;;;;;;;;;8.50;99.90;;;;;;4999733;28;19918;-72
2022/02/16 10:48:23;;;;;;;;;;;8.50;99.90;;;;;;4997977;28;19928;-73
2022/02/16 10:50:49;;;;;;;;;;;8.50;99.90;;;;;;4981510;28;19910;-73
2022/02/16 10:53:24;;;;;;;;;;;8.60;99.90;;;;;;4999277;28;19913;-75
2022/02/16 10:55:50;;;;;;;;;;;8.60;99.90;;;;;;4982327;28;20434;-73
2022/02/16 10:58:20;;;;;;;;;;;8.70;99.90;;;;;;4979953;28;19918;-73
2022/02/16 11:00:48;;;;;;;;;;;8.70;99.90;;;;;;4980199;28;20358;-73
2022/02/16 11:03:19;;;;;;;;;;;8.70;99.90;;;;;;4996152;28;20330;-74
2022/02/16 11:05:45;;;;;;;;;;;8.70;99.90;;;;;;4973349;28;19910;-73
2022/02/16 11:08:13;;;;;;;;;;;8.80;99.90;;;;;;4997905;28;19964;-74
2022/02/16 11:10:45;;;;;;;;;;;8.80;99.90;;;;;;4997467;28;19910;-73
2022/02/16 11:13:12;;;;;;;;;;;8.80;99.90;;;;;;4996233;28;19964;-74
2022/02/16 11:15:38;;;;;;;;;;;8.80;99.90;;;;;;4995980;28;19917;-74
2022/02/16 11:18:15;;;;;;;;;;;8.90;99.90;;;;;;4998798;28;19922;-74
2022/02/16 11:20:41;;;;;;;;;;;8.90;99.90;;;;;;4998801;28;19939;-72
2022/02/16 11:23:07;;;;;;;;;;;9.00;99.90;;;;;;4981645;28;20360;-73
2022/02/16 11:25:37;;;;;;;;;;;9.00;99.90;;;;;;4980532;28;19910;-73
2022/02/16 11:28:05;;;;;;;;;;;9.00;99.90;;;;;;4979313;28;20420;-73
2022/02/16 11:30:35;;;;;;;;;;;9.10;99.90;;;;;;4996177;28;20268;-73
2022/02/16 11:33:10;;;;;;;;;;;9.10;99.90;;;;;;4958507;28;19925;-73
2022/02/16 11:35:46;;;;;;;;;;;9.10;99.90;;;;;;4985673;28;19913;-73
2022/02/16 11:38:13;;;;;;;;;;;9.10;99.90;;;;;;4989460;28;19921;-73
2022/02/16 11:40:42;;;;;;;;;;;9.20;99.90;;;;;;4989003;28;20245;-73
2022/02/16 11:43:10;;;;;;;;;;;9.30;99.90;;;;;;4988987;28;20020;-73
2022/02/16 11:45:41;;;;;;;;;;;9.30;99.90;;;;;;4991224;28;19988;-73
2022/02/16 11:48:08;;;;;;;;;;;9.30;99.90;;;;;;4962512;28;19913;-73
2022/02/16 11:50:37;;;;;;;;;;;9.40;99.90;;;;;;4992215;28;19920;-73
2022/02/16 11:53:04;;;;;;;;;;;9.40;99.90;;;;;;4987388;28;20279;-73
2022/02/16 11:55:34;;;;;;;;;;;9.40;99.90;;;;;;4991699;28;19913;-73
2022/02/16 11:58:02;;;;;;;;;;;9.40;99.90;;;;;;4987868;28;20242;-73
2022/02/16 12:00:31;;;;;;;;;;;9.50;99.90;;;;;;4978012;28;19918;-74
2022/02/16 12:02:58;;;;;;;;;;;9.50;99.90;;;;;;4972588;28;19928;-74
2022/02/16 12:05:45;;;;;;;;;;;9.50;99.90;;;;;;4973558;28;20012;-73
2022/02/16 12:08:16;;;;;;;;;;;9.50;99.90;;;;;;4971646;28;19913;-73
2022/02/16 12:10:44;;;;;;;;;;;9.50;99.90;;;;;;4982330;28;19940;-72
2022/02/16 12:13:10;;;;;;;;;;;9.60;99.90;;;;;;4964694;28;19971;-74
2022/02/16 12:15:35;;;;;;;;;;;9.60;99.90;;;;;;4996048;28;19956;-73
2022/02/16 12:18:02;;;;;;;;;;;9.60;99.90;;;;;;4968705;28;23938;-73
2022/02/16 12:20:28;;;;;;;;;;;9.70;99.90;;;;;;4995402;28;19996;-73
2022/02/16 12:22:59;;;;;;;;;;;9.70;99.90;;;;;;4998542;28;20008;-73
2022/02/16 12:25:25;;;;;;;;;;;9.70;99.90;;;;;;5004514;28;20004;-73
2022/02/16 12:27:50;;;;;;;;;;;9.80;99.90;;;;;;5001500;28;20431;-74
2022/02/16 12:30:16;;;;;;;;;;;9.80;99.90;;;;;;4983056;28;20165;-73
2022/02/16 12:32:45;;;;;;;;;;;9.80;99.90;;;;;;4999148;28;19919;-73
2022/02/16 12:35:10;;;;;;;;;;;9.80;99.90;;;;;;5001908;28;19924;-74
2022/02/16 12:37:38;;;;;;;;;;;9.80;99.90;;;;;;4997971;28;19921;-72
2022/02/16 12:40:05;;;;;;;;;;;9.90;99.90;;;;;;5001837;28;19921;-74
2022/02/16 12:42:37;;;;;;;;;;;9.90;99.90;;;;;;5002475;28;19936;-74
2022/02/16 12:45:03;;;;;;;;;;;9.90;99.90;;;;;;4980774;28;19913;-73
2022/02/16 12:47:28;;;;;;;;;;;10.00;99.90;;;;;;4982885;28;19914;-73
2022/02/16 12:49:54;;;;;;;;;;;10.00;99.90;;;;;;4967487;28;19909;-73
2022/02/16 12:52:26;;;;;;;;;;;10.10;99.90;;;;;;4999470;28;19940;-73
2022/02/16 12:54:53;;;;;;;;;;;10.10;99.90;;;;;;4999592;28;19915;-74
2022/02/16 12:57:19;;;;;;;;;;;10.10;99.90;;;;;;4997938;28;19917;-73
2022/02/16 13:02:33;;;;;;;;;;;10.20;99.90;;;;;;4980750;28;19924;-73
2022/02/16 13:05:06;;;;;;;;;;;10.20;99.90;;;;;;5005229;28;19960;-73
2022/02/16 13:07:35;;;;;;;;;;;10.20;99.90;;;;;;4982699;28;19920;-73
2022/02/16 13:10:02;;;;;;;;;;;10.20;99.90;;;;;;4982539;28;19960;-74
2022/02/16 13:12:50;;;;;;;;;;;10.30;99.90;;;;;;4982101;28;19910;-74
2022/02/16 13:15:18;;;;;;;;;;;10.30;99.90;;;;;;5000885;28;19913;-74
2022/02/16 13:17:48;;;;;;;;;;;10.30;99.90;;;;;;4997919;28;19917;-74
2022/02/16 13:20:18;;;;;;;;;;;10.30;99.90;;;;;;4998635;28;19909;-73
2022/02/16 13:22:48;;;;;;;;;;;10.30;99.90;;;;;;4999166;28;19917;-73
2022/02/16 13:25:22;;;;;;;;;;;10.30;99.90;;;;;;5001327;28;19910;-73
2022/02/16 13:27:48;;;;;;;;;;;10.40;99.90;;;;;;5001140;28;19913;-73
2022/02/16 13:30:15;;;;;;;;;;;10.30;99.90;;;;;;4985247;28;19957;-75
2022/02/16 13:32:43;;;;;;;;;;;10.40;99.90;;;;;;4983108;28;19961;-74
2022/02/16 13:35:38;;;;;;;;;;;10.40;99.90;;;;;;5000060;28;19997;-73
2022/02/16 13:38:05;;;;;;;;;;;10.40;99.90;;;;;;4964985;28;19917;-72
2022/02/16 13:40:50;;;;;;;;;;;10.40;99.90;;;;;;4998970;28;19932;-73
2022/02/16 13:43:16;;;;;;;;;;;10.50;99.90;;;;;;5002746;28;20561;-73
2022/02/16 13:45:42;;;;;;;;;;;10.50;99.90;;;;;;4998521;28;20398;-73
2022/02/16 13:48:08;;;;;;;;;;;10.50;99.90;;;;;;4999271;28;19909;-73
2022/02/16 13:50:41;;;;;;;;;;;10.50;99.90;;;;;;4980488;28;19910;-72
2022/02/16 13:53:08;;;;;;;;;;;10.50;99.90;;;;;;4979633;28;19921;-73
2022/02/16 13:55:43;;;;;;;;;;;10.50;99.90;;;;;;4997375;28;19909;-73
2022/02/16 13:58:09;;;;;;;;;;;10.50;99.90;;;;;;4963202;28;20356;-73
2022/02/16 14:00:34;;;;;;;;;;;10.50;99.90;;;;;;4999886;28;19913;-73
2022/02/16 14:03:10;;;;;;;;;;;10.50;99.90;;;;;;4980129;28;19993;-73
2022/02/16 14:05:36;;;;;;;;;;;10.50;99.90;;;;;;4998207;28;20051;-73
2022/02/16 14:08:03;;;;;;;;;;;10.50;99.90;;;;;;5002351;28;20000;-73
2022/02/16 14:10:29;;;;;;;;;;;10.50;99.90;;;;;;4988980;28;19909;-73
2022/02/16 14:12:55;;;;;;;;;;;10.50;99.90;;;;;;4999298;28;20299;-73
2022/02/16 14:15:22;;;;;;;;;;;10.50;99.90;;;;;;4998533;28;19913;-73
2022/02/16 14:17:49;;;;;;;;;;;10.60;99.90;;;;;;4997197;28;19914;-73
2022/02/16 14:20:16;;;;;;;;;;;10.60;99.90;;;;;;4997732;28;20056;-73
2022/02/16 14:22:42;;;;;;;;;;;10.60;99.90;;;;;;4997960;28;19917;-74
2022/02/16 14:25:08;;;;;;;;;;;10.60;99.90;;;;;;4997794;28;19909;-74
2022/02/16 14:27:34;;;;;;;;;;;10.60;99.90;;;;;;4980027;28;20424;-79
2022/02/16 14:29:59;;;;;;;;;;;10.70;99.90;;;;;;5008476;28;19910;-74
2022/02/16 14:32:26;;;;;;;;;;;10.70;99.90;;;;;;4998426;28;19918;-73